Terminal Aerodrome Forecast
Issued by NWS

Home | Current Version | Previous Version | Text Only | Print | Product List | Glossary On
Versions: 1 2 3 4 5 6 7 8 9 10 11 12 13 14 15 16 17 18
000
FTUS45 KRIW 222300
TAFJAC
TAF
KJAC 222327Z 2300/2324 18011KT P6SM VCSH SCT030 OVC050
     FM230700 36006KT P6SM VCFG SCT004 BKN025
     FM231100 36004KT 3SM BR SCT004 BKN012
     FM231600 19006KT P6SM SCT012 BKN030
     FM231800 20009KT P6SM SCT050
      AMD LTD TO CLD VIS AND WIND=

USA.gov is the U.S. government's official web portal to all federal, state and local government web resources and services.